Time;durP1;ratioP1;P1;durP2;ratioP2;P2;SDS_P1;SDS_P2;PMS_P1;PMS_P2;Temp;Humidity;BMP_temperature;BMP_pressure;BME280_temperature;BME280_humidity;BME280_pressure;Samples;Min_cycle;Max_cycle;Signal;HPM_P1;HPM_P2
2022/10/18 00:00:13;;;;;;;72.70;35.20;;;;;;;6.32;100.00;101600.44;1742338;81;21003;-66
2022/10/18 00:02:39;;;;;;;57.67;28.70;;;;;;;6.29;100.00;101592.59;1742762;81;21045;-65
2022/10/18 00:05:08;;;;;;;41.28;21.10;;;;;;;6.27;100.00;101592.57;1742691;81;21139;-65
2022/10/18 00:07:34;;;;;;;42.93;20.75;;;;;;;6.26;100.00;101586.05;1742601;82;21034;-65
2022/10/18 00:10:01;;;;;;;83.37;39.75;;;;;;;6.24;100.00;101583.41;1742687;81;21015;-65
2022/10/18 00:12:28;;;;;;;44.88;20.65;;;;;;;6.22;100.00;101577.73;1742492;82;21026;-65
2022/10/18 00:14:56;;;;;;;36.40;17.62;;;;;;;6.21;100.00;101573.36;1742693;82;21034;-65
2022/10/18 00:17:24;;;;;;;34.38;16.57;;;;;;;6.17;100.00;101571.63;1742675;81;21046;-66
2022/10/18 00:19:51;;;;;;;38.85;18.57;;;;;;;6.14;100.00;101574.20;1742571;82;21003;-66
2022/10/18 00:22:17;;;;;;;87.20;39.98;;;;;;;6.11;100.00;101571.59;1742447;82;21050;-65
2022/10/18 00:24:45;;;;;;;102.40;44.20;;;;;;;6.11;100.00;101568.97;1742586;82;21538;-64
2022/10/18 00:27:11;;;;;;;90.75;44.65;;;;;;;6.09;100.00;101572.44;1742774;81;21510;-64
2022/10/18 00:29:39;;;;;;;55.43;24.27;;;;;;;6.09;100.00;101573.73;1745079;80;21589;-65
2022/10/18 00:32:06;;;;;;;48.15;21.35;;;;;;;6.08;100.00;101575.93;1755705;81;22223;-66
2022/10/18 00:34:33;;;;;;;39.98;21.45;;;;;;;6.08;100.00;101568.53;1756160;81;21466;-66
2022/10/18 00:37:00;;;;;;;35.38;18.10;;;;;;;6.08;100.00;101565.47;1756051;81;21537;-65
2022/10/18 00:39:26;;;;;;;33.63;17.45;;;;;;;6.05;100.00;101560.23;1756090;81;21029;-65
2022/10/18 00:41:54;;;;;;;29.98;16.02;;;;;;;6.01;100.00;101551.06;1755945;81;21176;-65
2022/10/18 00:44:30;;;;;;;34.23;17.82;;;;;;;5.97;100.00;101551.47;1755435;81;21014;-65
2022/10/18 00:47:04;;;;;;;30.52;17.50;;;;;;;5.95;100.00;101551.89;1750250;82;21100;-65
2022/10/18 00:49:36;;;;;;;32.15;16.90;;;;;;;5.94;100.00;101550.16;1750329;82;21108;-65
2022/10/18 00:52:12;;;;;;;30.25;16.90;;;;;;;5.96;100.00;101551.45;1750459;82;21575;-65
2022/10/18 00:54:41;;;;;;;35.90;17.65;;;;;;;5.94;100.00;101550.16;1746002;82;21201;-64
2022/10/18 00:57:07;;;;;;;37.88;18.60;;;;;;;5.94;100.00;101551.87;1750371;82;21041;-65
2022/10/18 00:59:34;;;;;;;37.63;18.10;;;;;;;5.93;100.00;101552.28;1750324;82;21029;-64
2022/10/18 01:02:02;;;;;;;38.50;18.25;;;;;;;5.94;100.00;101547.95;1750264;82;21061;-65
2022/10/18 01:04:28;;;;;;;39.18;17.52;;;;;;;5.96;100.00;101546.22;1750397;82;21631;-65
2022/10/18 01:07:19;;;;;;;31.75;17.30;;;;;;;5.97;100.00;101537.52;1750453;82;22214;-65
2022/10/18 01:10:18;;;;;;;35.28;17.77;;;;;;;5.97;100.00;101534.47;1750328;82;25237;-65
2022/10/18 01:13:01;;;;;;;34.35;16.85;;;;;;;5.93;100.00;101530.05;1750035;82;21064;-65
2022/10/18 01:15:35;;;;;;;33.75;18.52;;;;;;;5.88;100.00;101527.42;1737165;82;21104;-65
2022/10/18 01:18:31;;;;;;;36.63;17.48;;;;;;;5.87;100.00;101533.97;1749979;82;21037;-65
2022/10/18 01:21:17;;;;;;;34.73;18.37;;;;;;;5.84;100.00;101528.70;1750376;82;21164;-65
2022/10/18 01:23:58;;;;;;;36.65;19.07;;;;;;;5.83;100.00;101529.58;1750685;82;21065;-64
2022/10/18 01:26:56;;;;;;;35.17;19.42;;;;;;;5.85;100.00;101520.02;1749473;82;21088;-65
2022/10/18 01:30:19;;;;;;;31.35;16.67;;;;;;;5.85;100.00;101521.31;1749390;82;21570;-65
2022/10/18 01:32:51;;;;;;;39.27;19.60;;;;;;;5.89;100.00;101517.86;1721463;82;21069;-66
2022/10/18 01:35:23;;;;;;;38.02;17.87;;;;;;;5.90;100.00;101519.59;1750477;82;21028;-65
2022/10/18 01:37:51;;;;;;;31.57;16.95;;;;;;;5.88;100.00;101512.17;1750434;82;21085;-65
2022/10/18 01:43:23;;;;;;;34.92;16.93;;;;;;;5.82;100.00;101500.36;1882024;75;28067;-64
2022/10/18 01:45:52;;;;;;;31.82;16.62;;;;;;;5.86;100.00;101500.39;1854037;77;20961;-64
2022/10/18 01:48:19;;;;;;;35.92;18.00;;;;;;;5.96;100.00;101504.37;1852190;77;21866;-64
2022/10/18 01:50:46;;;;;;;35.13;16.73;;;;;;;6.04;100.00;101503.55;1852086;77;21473;-64
2022/10/18 01:53:29;;;;;;;30.43;16.48;;;;;;;6.09;100.00;101495.27;1782492;79;21017;-65
2022/10/18 01:56:23;;;;;;;31.55;16.67;;;;;;;6.14;100.00;101493.12;1800955;79;21054;-64
2022/10/18 01:58:55;;;;;;;36.30;17.23;;;;;;;6.17;100.00;101493.15;1801336;79;21058;-65
2022/10/18 02:01:34;;;;;;;34.43;16.87;;;;;;;6.18;100.00;101487.90;1801662;79;21198;-65
2022/10/18 02:04:23;;;;;;;31.23;16.25;;;;;;;6.21;100.00;101487.92;1801628;79;20874;-64
2022/10/18 02:06:54;;;;;;;35.92;15.65;;;;;;;6.25;100.00;101480.94;1801702;79;22026;-64
2022/10/18 02:09:37;;;;;;;32.75;16.45;;;;;;;6.28;100.00;101478.32;1802076;79;21079;-65
2022/10/18 02:12:03;;;;;;;37.78;17.23;;;;;;;6.27;100.00;101480.07;1801606;79;21008;-65
2022/10/18 02:14:30;;;;;;;36.08;17.80;;;;;;;6.26;100.00;101478.34;1801687;79;21087;-65
2022/10/18 02:16:58;;;;;;;34.60;17.05;;;;;;;6.28;100.00;101478.32;1801447;79;21559;-64
2022/10/18 02:19:33;;;;;;;33.02;16.35;;;;;;;6.29;100.00;101467.87;1799472;79;20972;-64
2022/10/18 02:22:00;;;;;;;33.60;17.77;;;;;;;6.30;100.00;101466.12;1797700;79;21575;-67
2022/10/18 02:24:34;;;;;;;33.65;17.05;;;;;;;6.29;100.00;101458.72;1797619;79;21103;-65
2022/10/18 02:27:01;;;;;;;37.03;17.07;;;;;;;6.28;100.00;101462.62;1797762;79;21252;-65
2022/10/18 02:29:28;;;;;;;32.35;16.15;;;;;;;6.29;100.00;101467.00;1798172;79;21008;-65
2022/10/18 02:32:09;;;;;;;30.32;15.78;;;;;;;6.32;100.00;101455.67;1797840;79;21087;-65
2022/10/18 02:34:40;;;;;;;35.00;17.05;;;;;;;6.36;100.00;101460.91;1797935;79;21477;-65
2022/10/18 02:37:09;;;;;;;30.20;15.58;;;;;;;6.37;100.00;101457.41;1797872;79;21045;-65
2022/10/18 02:39:40;;;;;;;33.53;17.07;;;;;;;6.37;100.00;101455.23;1782107;79;21143;-65
2022/10/18 02:42:09;;;;;;;32.85;17.57;;;;;;;6.39;100.00;101457.42;1811129;79;21562;-64
2022/10/18 02:44:35;;;;;;;34.95;16.52;;;;;;;6.39;100.00;101457.42;1776041;80;20990;-65
2022/10/18 02:47:03;;;;;;;33.90;17.17;;;;;;;6.39;100.00;101454.80;1749834;82;21131;-66
2022/10/18 02:49:30;;;;;;;33.63;16.95;;;;;;;6.39;100.00;101450.44;1779398;80;21088;-64
2022/10/18 02:51:56;;;;;;;34.25;15.93;;;;;;;6.42;100.00;101453.08;1779441;80;21248;-65
2022/10/18 02:54:23;;;;;;;28.40;15.23;;;;;;;6.41;100.00;101450.45;1778810;80;22089;-64
2022/10/18 02:56:50;;;;;;;36.00;17.12;;;;;;;6.41;100.00;101443.47;1778871;80;21049;-65
2022/10/18 02:59:17;;;;;;;31.27;15.60;;;;;;;6.43;100.00;101443.03;1779017;80;21104;-66
2022/10/18 03:01:43;;;;;;;37.50;16.97;;;;;;;6.43;100.00;101435.19;1800704;79;21104;-66
2022/10/18 03:04:11;;;;;;;31.87;16.12;;;;;;;6.42;100.00;101432.14;1810908;79;21459;-66
2022/10/18 03:06:38;;;;;;;32.00;15.88;;;;;;;6.42;100.00;101430.84;1810673;79;21034;-64
2022/10/18 03:09:05;;;;;;;31.48;15.58;;;;;;;6.47;100.00;101427.78;1810813;79;21648;-63
2022/10/18 03:11:32;;;;;;;28.62;15.43;;;;;;;6.48;100.00;101432.57;1811001;79;21741;-65
2022/10/18 03:13:58;;;;;;;29.77;14.85;;;;;;;6.49;100.00;101418.19;1810610;79;21593;-66
2022/10/18 03:16:26;;;;;;;31.75;15.03;;;;;;;6.50;100.00;101422.53;1810335;79;21026;-66
2022/10/18 03:18:55;;;;;;;31.50;15.70;;;;;;;6.54;100.00;101426.48;1810644;79;21050;-65
2022/10/18 03:21:21;;;;;;;31.82;15.58;;;;;;;6.53;100.00;101424.28;1810891;79;21470;-65
2022/10/18 03:23:48;;;;;;;30.05;15.50;;;;;;;6.53;100.00;101415.56;1810838;79;21025;-64
2022/10/18 03:26:16;;;;;;;27.93;15.05;;;;;;;6.50;100.00;101409.45;1810959;79;21541;-65
2022/10/18 03:28:43;;;;;;;26.90;15.15;;;;;;;6.48;100.00;101415.11;1810998;79;20986;-65
2022/10/18 03:31:09;;;;;;;30.85;16.07;;;;;;;6.45;100.00;101419.05;1811465;79;21042;-65
2022/10/18 03:33:37;;;;;;;32.35;17.15;;;;;;;6.42;100.00;101418.16;1811067;79;21474;-65
2022/10/18 03:36:05;;;;;;;38.33;16.70;;;;;;;6.40;100.00;101422.11;1811200;79;21021;-66
2022/10/18 03:38:33;;;;;;;41.25;17.70;;;;;;;6.39;100.00;101419.03;1811000;79;21002;-65
2022/10/18 03:41:00;;;;;;;38.17;16.42;;;;;;;6.37;100.00;101415.55;1810970;79;21933;-65
2022/10/18 03:43:26;;;;;;;30.05;17.07;;;;;;;6.35;100.00;101421.65;1813601;79;21009;-65
2022/10/18 03:45:53;;;;;;;37.53;17.57;;;;;;;6.32;100.00;101415.98;1791821;79;21544;-65
2022/10/18 03:48:19;;;;;;;34.15;17.23;;;;;;;6.29;100.00;101418.16;1779311;80;21593;-65
2022/10/18 03:50:46;;;;;;;32.20;17.50;;;;;;;6.26;100.00;101413.38;1752627;81;21109;-65
2022/10/18 03:53:13;;;;;;;31.73;16.87;;;;;;;6.21;100.00;101411.17;1779320;80;21435;-65
2022/10/18 03:55:39;;;;;;;31.15;16.75;;;;;;;6.16;100.00;101406.37;1752538;81;21081;-64
2022/10/18 03:58:06;;;;;;;31.85;16.70;;;;;;;6.09;100.00;101405.48;1790631;79;21032;-64
2022/10/18 04:00:34;;;;;;;30.32;14.43;;;;;;;6.01;100.00;101405.48;1814714;79;21476;-65
2022/10/18 04:03:00;;;;;;;31.15;16.05;;;;;;;6.01;100.00;101401.56;1814658;79;21504;-65
2022/10/18 04:05:29;;;;;;;31.90;16.32;;;;;;;6.01;100.00;101398.95;1815072;79;21774;-65
2022/10/18 04:07:57;;;;;;;31.70;16.73;;;;;;;6.02;100.00;101398.06;1814730;79;20988;-66
2022/10/18 04:10:25;;;;;;;27.42;16.35;;;;;;;6.00;100.00;101386.72;1814818;79;21031;-65
2022/10/18 04:12:53;;;;;;;33.53;16.52;;;;;;;5.99;100.00;101385.43;1814577;79;21023;-65
2022/10/18 04:15:19;;;;;;;33.70;18.05;;;;;;;5.98;100.00;101384.98;1814901;79;21539;-66
2022/10/18 04:17:46;;;;;;;38.42;18.82;;;;;;;5.99;100.00;101384.12;1815115;79;21857;-65
2022/10/18 04:20:12;;;;;;;40.20;18.32;;;;;;;5.97;100.00;101389.34;1814642;79;21067;-66
2022/10/18 04:22:39;;;;;;;33.25;18.48;;;;;;;5.97;100.00;101388.47;1814714;79;21071;-66
2022/10/18 04:25:07;;;;;;;37.63;19.65;;;;;;;5.94;100.00;101376.68;1814782;79;21538;-66
2022/10/18 04:27:35;;;;;;;39.23;19.85;;;;;;;5.94;100.00;101381.91;1815159;79;21282;-65
2022/10/18 04:30:01;;;;;;;38.15;19.87;;;;;;;5.86;100.00;101372.72;1814607;79;21212;-66
2022/10/18 04:32:28;;;;;;;37.23;19.20;;;;;;;5.85;100.00;101370.98;1814754;79;21087;-64
2022/10/18 04:34:54;;;;;;;44.10;19.27;;;;;;;5.84;100.00;101366.61;1814642;79;21079;-65
2022/10/18 04:37:21;;;;;;;36.60;18.15;;;;;;;5.82;100.00;101372.27;1814665;79;21009;-66
2022/10/18 04:39:48;;;;;;;41.23;18.07;;;;;;;5.81;100.00;101371.84;1814529;79;21111;-66
2022/10/18 04:42:14;;;;;;;35.65;17.73;;;;;;;5.81;100.00;101362.69;1814431;77;21786;-66
2022/10/18 04:44:41;;;;;;;30.85;16.25;;;;;;;5.81;100.00;101364.00;1810873;79;21047;-65
2022/10/18 04:47:07;;;;;;;31.52;15.60;;;;;;;5.83;100.00;101354.42;1810790;79;21045;-66
2022/10/18 04:49:35;;;;;;;29.87;15.32;;;;;;;5.85;100.00;101350.08;1780576;80;21006;-64
2022/10/18 04:52:02;;;;;;;30.57;15.88;;;;;;;5.87;100.00;101347.03;1810745;79;21553;-65
2022/10/18 04:54:29;;;;;;;29.42;15.38;;;;;;;5.93;100.00;101348.77;1810902;79;21128;-64
2022/10/18 04:56:56;;;;;;;33.30;17.25;;;;;;;5.98;100.00;101342.73;1810705;79;21041;-66
2022/10/18 04:59:23;;;;;;;34.53;16.85;;;;;;;6.01;100.00;101344.47;1811140;79;21034;-66
2022/10/18 05:01:49;;;;;;;30.50;16.25;;;;;;;6.05;100.00;101335.32;1810534;79;21050;-66
2022/10/18 05:04:16;;;;;;;31.33;15.95;;;;;;;6.09;100.00;101333.56;1810999;79;21037;-66
2022/10/18 05:06:45;;;;;;;41.75;19.02;;;;;;;6.13;100.00;101329.22;1783813;79;21613;-65
2022/10/18 05:09:11;;;;;;;37.73;18.05;;;;;;;6.18;100.00;101330.95;1780427;80;21002;-66
2022/10/18 05:11:40;;;;;;;39.88;18.82;;;;;;;6.23;100.00;101331.81;1777148;80;21049;-67
2022/10/18 05:14:08;;;;;;;37.10;18.00;;;;;;;6.28;100.00;101331.81;1780432;80;21615;-65
2022/10/18 05:16:35;;;;;;;41.10;19.15;;;;;;;6.33;100.00;101332.71;1810666;79;21062;-65
2022/10/18 05:19:04;;;;;;;41.53;18.65;;;;;;;6.40;100.00;101333.59;1810657;79;21106;-66
2022/10/18 05:21:31;;;;;;;36.50;18.80;;;;;;;6.46;100.00;101337.04;1810511;79;21026;-67
2022/10/18 05:23:57;;;;;;;36.80;17.98;;;;;;;6.54;100.00;101334.87;1810693;79;21043;-66
2022/10/18 05:26:24;;;;;;;40.30;19.10;;;;;;;6.68;100.00;101338.34;1810893;79;21030;-65
2022/10/18 05:28:52;;;;;;;35.73;16.60;;;;;;;7.21;100.00;101343.87;1810543;79;21018;-67
2022/10/18 05:31:20;;;;;;;33.73;16.70;;;;;;;7.99;94.24;101347.38;1810733;79;21255;-66
2022/10/18 05:33:48;;;;;;;38.95;17.82;;;;;;;8.79;90.92;101339.31;1810421;79;21021;-66
2022/10/18 05:36:14;;;;;;;34.88;16.20;;;;;;;9.64;86.57;101340.02;1810855;79;21030;-66
2022/10/18 05:38:44;;;;;;;36.42;15.38;;;;;;;10.45;81.42;101346.28;1810640;79;21029;-65
2022/10/18 05:41:11;;;;;;;35.33;16.60;;;;;;;11.21;76.58;101341.80;1810561;79;20999;-65
2022/10/18 05:43:39;;;;;;;29.02;15.43;;;;;;;11.88;71.93;101348.27;1810487;79;21822;-66
2022/10/18 05:46:07;;;;;;;26.57;15.15;;;;;;;12.57;69.48;101344.40;1796374;79;21092;-65
2022/10/18 05:48:33;;;;;;;28.87;15.05;;;;;;;13.13;63.84;101343.30;1793577;80;21185;-65
2022/10/18 05:51:00;;;;;;;26.60;14.28;;;;;;;13.62;60.21;101341.92;1762168;81;21081;-67
2022/10/18 05:53:27;;;;;;;26.27;15.48;;;;;;;14.08;58.20;101335.64;1793635;80;21092;-66
2022/10/18 05:55:54;;;;;;;26.80;14.20;;;;;;;14.51;57.10;101338.63;1762454;81;21290;-67
2022/10/18 05:58:20;;;;;;;30.75;14.98;;;;;;;14.98;54.43;101332.17;1793555;80;21064;-65
2022/10/18 06:00:47;;;;;;;27.20;15.70;;;;;;;15.37;52.19;101334.24;1762387;81;21069;-65
2022/10/18 06:16:28;;;;;;;23.15;11.83;;;;;;;18.07;42.83;101315.08;1807551;79;21979;-66
2022/10/18 06:18:56;;;;;;;23.80;11.43;;;;;;;18.04;41.99;101314.77;1815667;79;21482;-67
2022/10/18 06:21:24;;;;;;;22.35;11.40;;;;;;;17.96;41.99;101312.45;1815634;79;21104;-68
2022/10/18 06:23:53;;;;;;;19.70;11.22;;;;;;;17.95;41.68;101314.73;1815603;79;20998;-67
2022/10/18 06:26:21;;;;;;;21.90;12.25;;;;;;;17.98;41.94;101317.72;1815929;78;21001;-66
2022/10/18 06:28:48;;;;;;;19.05;10.15;;;;;;;18.18;41.79;101318.08;1815553;79;21505;-66
2022/10/18 06:31:16;;;;;;;19.67;10.43;;;;;;;18.51;41.02;101319.49;1815633;79;21100;-66
2022/10/18 06:33:44;;;;;;;20.72;11.00;;;;;;;18.73;39.55;101312.59;1815617;79;21255;-67
2022/10/18 06:36:14;;;;;;;24.25;11.22;;;;;;;18.90;39.30;101309.05;1815428;79;21013;-66
2022/10/18 06:38:41;;;;;;;18.45;10.53;;;;;;;19.02;39.07;101315.06;1815565;79;21068;-66
2022/10/18 06:41:08;;;;;;;22.70;11.15;;;;;;;19.28;38.95;101310.14;1815883;79;20970;-65
2022/10/18 06:43:34;;;;;;;22.90;10.98;;;;;;;19.42;38.18;101312.91;1815511;79;21005;-68
2022/10/18 06:46:04;;;;;;;24.63;12.10;;;;;;;19.60;37.63;101308.80;1808431;79;21076;-66
2022/10/18 06:48:31;;;;;;;18.92;10.30;;;;;;;19.79;37.67;101312.70;1740197;82;21553;-67
2022/10/18 06:51:00;;;;;;;23.57;10.45;;;;;;;20.04;37.03;101300.97;1740170;82;21026;-66
2022/10/18 06:53:32;;;;;;;16.57;10.32;;;;;;;20.09;36.29;101296.70;1740175;82;21022;-67
2022/10/18 06:56:05;;;;;;;27.02;10.18;;;;;;;20.16;36.52;101291.85;1740621;82;21061;-68
2022/10/18 06:58:31;;;;;;;20.35;9.58;;;;;;;20.33;36.41;101279.17;1740177;82;21175;-67
2022/10/18 07:00:58;;;;;;;20.85;9.70;;;;;;;20.51;35.17;101288.41;1723824;81;21525;-67
2022/10/18 07:03:26;;;;;;;17.12;9.38;;;;;;;20.45;35.24;101290.10;1722587;83;21021;-66
2022/10/18 07:05:53;;;;;;;20.23;9.45;;;;;;;20.56;34.86;101283.66;1722817;83;21056;-66
2022/10/18 07:08:20;;;;;;;21.77;9.05;;;;;;;20.78;35.04;101282.38;1726238;83;21687;-65
2022/10/18 07:10:52;;;;;;;21.33;9.78;;;;;;;20.92;34.22;101281.89;1726891;83;21908;-66
2022/10/18 07:13:20;;;;;;;23.02;10.80;;;;;;;21.00;34.10;101286.75;1726833;83;21072;-65
2022/10/18 07:15:48;;;;;;;29.23;8.98;;;;;;;21.18;33.86;101283.41;1726621;82;21599;-67
2022/10/18 07:18:14;;;;;;;16.12;9.05;;;;;;;21.40;33.37;101280.72;1726244;83;21049;-66
2022/10/18 07:20:41;;;;;;;15.95;8.65;;;;;;;21.72;33.30;101269.27;1726581;83;21580;-67
2022/10/18 07:23:10;;;;;;;14.53;8.80;;;;;;;22.09;32.38;101273.53;1726133;83;21440;-66
2022/10/18 07:25:36;;;;;;;18.42;8.35;;;;;;;22.35;31.81;101273.13;1726286;83;21053;-67
2022/10/18 07:28:07;;;;;;;15.53;9.18;;;;;;;22.44;31.35;101267.61;1725981;83;21112;-66
2022/10/18 07:30:34;;;;;;;18.57;8.58;;;;;;;22.46;31.74;101271.06;1726265;83;21076;-68
2022/10/18 07:33:01;;;;;;;16.55;8.90;;;;;;;22.45;31.06;101272.00;1725971;83;21127;-67
2022/10/18 07:35:27;;;;;;;14.98;8.73;;;;;;;22.35;31.66;101265.08;1726094;83;21652;-66
2022/10/18 07:37:55;;;;;;;15.88;8.50;;;;;;;22.47;31.55;101257.51;1726102;83;21044;-65
2022/10/18 07:40:21;;;;;;;17.40;8.93;;;;;;;22.51;30.91;101264.39;1726128;83;21121;-66
2022/10/18 07:42:50;;;;;;;19.15;9.20;;;;;;;22.37;31.07;101259.97;1725939;83;21065;-66
2022/10/18 07:45:17;;;;;;;17.35;8.35;;;;;;;22.45;31.35;101247.84;1725666;83;21106;-67
2022/10/18 07:47:43;;;;;;;15.00;8.45;;;;;;;22.71;30.86;101249.59;1726014;83;21555;-66
2022/10/18 07:50:12;;;;;;;13.13;7.58;;;;;;;22.77;30.83;101249.12;1726123;83;21037;-68
2022/10/18 07:52:39;;;;;;;22.87;8.58;;;;;;;22.79;30.74;101243.66;1725862;83;21123;-67
2022/10/18 07:55:06;;;;;;;17.77;8.90;;;;;;;22.92;30.35;101245.00;1725865;83;21077;-66
2022/10/18 07:57:33;;;;;;;14.63;7.60;;;;;;;22.94;30.22;101240.39;1725953;83;21029;-65
2022/10/18 07:59:59;;;;;;;16.52;7.75;;;;;;;23.07;30.31;101231.83;1726059;83;21167;-66
2022/10/18 08:02:25;;;;;;;15.38;8.00;;;;;;;23.18;29.76;101227.88;1726260;83;21034;-66
2022/10/18 08:04:53;;;;;;;22.00;7.97;;;;;;;23.42;29.57;101224.36;1726123;83;21120;-68
2022/10/18 08:07:19;;;;;;;16.30;7.58;;;;;;;23.63;29.45;101224.13;1726336;83;21033;-68
2022/10/18 08:09:46;;;;;;;16.55;7.97;;;;;;;23.56;29.10;101220.19;1726255;83;21556;-68
2022/10/18 08:12:14;;;;;;;17.65;7.78;;;;;;;23.46;29.55;101213.27;1726107;83;21334;-69
2022/10/18 08:14:41;;;;;;;18.55;7.85;;;;;;;23.54;29.37;101212.72;1726188;83;21706;-68
2022/10/18 08:17:08;;;;;;;14.43;7.65;;;;;;;23.61;29.39;101218.01;1726174;83;21061;-69
2022/10/18 08:19:34;;;;;;;14.68;7.65;;;;;;;23.83;29.48;101205.66;1726116;83;21069;-67
2022/10/18 08:22:02;;;;;;;13.13;7.87;;;;;;;23.80;29.02;101208.59;1726272;83;21030;-67
2022/10/18 08:24:29;;;;;;;13.18;7.03;;;;;;;23.52;29.16;101202.56;1726523;83;21133;-66
2022/10/18 08:26:55;;;;;;;15.75;7.45;;;;;;;23.55;29.21;101202.33;1726182;83;21048;-67
2022/10/18 08:29:22;;;;;;;24.52;8.73;;;;;;;23.77;29.18;101195.38;1726412;83;21068;-66
2022/10/18 08:31:49;;;;;;;19.62;7.30;;;;;;;24.11;29.23;101192.78;1726121;83;21053;-67
2022/10/18 08:34:16;;;;;;;14.45;6.87;;;;;;;24.44;28.14;101190.16;1726143;83;21053;-66
2022/10/18 08:36:43;;;;;;;16.80;7.72;;;;;;;24.31;28.24;101185.36;1726057;83;21262;-66
2022/10/18 08:39:11;;;;;;;16.75;8.08;;;;;;;24.24;28.48;101177.41;1726559;83;21077;-66
2022/10/18 08:41:49;;;;;;;12.23;7.05;;;;;;;24.35;28.09;101180.61;1726323;83;21065;-67
2022/10/18 08:44:31;;;;;;;15.55;6.95;;;;;;;24.49;28.15;101171.83;1727618;81;21018;-66
2022/10/18 08:47:06;;;;;;;19.32;8.18;;;;;;;24.79;27.44;101166.32;1726816;81;21092;-67
2022/10/18 08:49:55;;;;;;;12.20;7.10;;;;;;;25.10;27.71;101166.55;1751123;81;21262;-66
2022/10/18 08:53:05;;;;;;;12.33;7.03;;;;;;;25.50;27.12;101164.61;1754312;81;21093;-67
2022/10/18 08:55:51;;;;;;;13.50;7.28;;;;;;;25.79;26.95;101165.33;1761532;81;21092;-67
2022/10/18 08:58:25;;;;;;;12.93;6.42;;;;;;;26.01;26.19;101158.50;1752058;81;21010;-67
2022/10/18 09:01:31;;;;;;;17.73;7.60;;;;;;;26.17;26.08;101153.98;1770524;81;21588;-67
2022/10/18 09:04:22;;;;;;;13.62;6.95;;;;;;;26.56;25.99;101151.02;1751930;81;21018;-68
2022/10/18 09:07:24;;;;;;;12.60;6.12;;;;;;;27.02;25.47;101143.84;1752314;81;21042;-66
2022/10/18 09:10:16;;;;;;;17.02;6.50;;;;;;;26.67;24.96;101141.11;1751870;81;21036;-68
2022/10/18 09:12:55;;;;;;;13.88;6.25;;;;;;;26.15;25.91;101136.56;1752148;81;21073;-67
2022/10/18 09:15:46;;;;;;;17.15;6.78;;;;;;;26.21;25.95;101132.98;1752869;81;21310;-66
2022/10/18 09:18:48;;;;;;;10.25;6.55;;;;;;;26.45;26.03;101133.51;1757710;81;21274;-67
2022/10/18 09:21:54;;;;;;;11.93;6.50;;;;;;;26.45;25.62;101128.11;1757726;81;21049;-66
2022/10/18 09:24:27;;;;;;;16.95;7.45;;;;;;;26.61;26.08;101126.29;1757652;81;21076;-68
2022/10/18 09:27:04;;;;;;;14.90;6.15;;;;;;;26.76;25.69;101113.27;1752581;81;21005;-67
2022/10/18 09:30:04;;;;;;;12.47;6.10;;;;;;;26.94;25.27;101108.02;1757859;81;21081;-67
2022/10/18 09:32:52;;;;;;;17.12;6.00;;;;;;;27.21;25.49;101096.57;1757672;81;21829;-67
2022/10/18 09:35:32;;;;;;;12.78;6.65;;;;;;;27.49;24.87;101098.06;1757833;81;21029;-67
2022/10/18 09:38:04;;;;;;;22.20;7.20;;;;;;;27.39;24.92;101088.61;1758123;81;21005;-67
2022/10/18 09:40:35;;;;;;;15.08;6.90;;;;;;;27.31;25.20;101092.04;1730358;81;21075;-67
2022/10/18 09:43:06;;;;;;;18.20;8.20;;;;;;;27.28;25.03;101082.84;1758162;81;21056;-66
2022/10/18 09:45:40;;;;;;;18.82;7.12;;;;;;;27.44;25.12;101077.36;1740172;81;21238;-67
2022/10/18 09:48:24;;;;;;;16.15;6.60;;;;;;;27.71;24.80;101074.77;1741693;82;21045;-66
2022/10/18 09:51:11;;;;;;;14.00;6.55;;;;;;;27.38;25.24;101070.69;1727763;83;21607;-67
2022/10/18 09:54:02;;;;;;;21.70;6.92;;;;;;;27.39;25.30;101056.16;1741431;82;21054;-66
2022/10/18 09:56:33;;;;;;;12.75;6.22;;;;;;;27.64;24.93;101051.99;1727652;83;21041;-67
2022/10/18 09:59:00;;;;;;;15.28;5.78;;;;;;;27.45;25.16;101047.95;1741072;82;21156;-66
2022/10/18 10:01:29;;;;;;;11.85;6.28;;;;;;;27.52;25.25;101040.98;1727509;83;21049;-66
2022/10/18 10:03:56;;;;;;;14.23;5.55;;;;;;;27.47;25.33;101041.90;1741331;82;21078;-66
2022/10/18 10:06:31;;;;;;;9.83;5.40;;;;;;;27.47;25.36;101036.48;1727523;82;21068;-66
2022/10/18 10:09:09;;;;;;;13.98;5.65;;;;;;;27.77;25.09;101033.59;1741316;82;21142;-67
2022/10/18 10:11:44;;;;;;;13.45;5.90;;;;;;;28.03;24.64;101031.62;1727441;83;21753;-66
2022/10/18 10:14:21;;;;;;;15.32;6.05;;;;;;;28.24;24.82;101026.81;1740873;82;21041;-66
2022/10/18 10:17:01;;;;;;;14.47;6.05;;;;;;;28.20;24.71;101012.36;1709164;83;21094;-67
2022/10/18 10:19:36;;;;;;;16.82;5.95;;;;;;;28.11;24.73;101018.17;1710190;83;21073;-67
2022/10/18 10:22:11;;;;;;;14.13;6.33;;;;;;;27.72;24.89;101015.60;1696828;84;21123;-66
2022/10/18 10:24:47;;;;;;;13.45;5.50;;;;;;;27.39;25.30;101011.02;1709951;83;21022;-66
2022/10/18 10:27:19;;;;;;;24.32;6.55;;;;;;;27.14;25.75;101003.48;1696897;84;21178;-67
2022/10/18 10:29:52;;;;;;;14.68;5.55;;;;;;;27.15;25.88;101006.55;1710327;83;21062;-66
2022/10/18 10:32:20;;;;;;;8.58;4.90;;;;;;;26.96;26.04;101000.16;1696959;84;21052;-66
2022/10/18 10:34:46;;;;;;;16.20;6.03;;;;;;;27.25;26.10;100991.70;1710463;83;21058;-66
2022/10/18 10:37:31;;;;;;;10.13;5.37;;;;;;;27.61;25.58;100988.20;1697101;84;21552;-66
2022/10/18 10:40:12;;;;;;;16.73;5.35;;;;;;;27.63;25.23;100996.19;1690682;83;21030;-66
2022/10/18 10:43:15;;;;;;;11.65;4.92;;;;;;;27.57;25.63;100988.64;1696715;84;21080;-66
2022/10/18 10:46:06;;;;;;;10.08;5.37;;;;;;;27.49;25.46;100981.75;1711101;83;21583;-66
2022/10/18 10:48:42;;;;;;;11.48;5.35;;;;;;;27.45;25.52;100973.56;1711648;83;21072;-66
2022/10/18 10:51:09;;;;;;;17.27;5.58;;;;;;;27.48;25.40;100978.70;1710204;83;21188;-66
2022/10/18 10:53:45;;;;;;;9.30;5.55;;;;;;;27.21;25.64;100973.55;1711704;83;21022;-67
2022/10/18 10:56:23;;;;;;;10.00;5.87;;;;;;;27.08;26.09;100968.89;1711765;83;21566;-66
2022/10/18 10:58:51;;;;;;;9.63;5.17;;;;;;;27.20;26.10;100959.69;1711900;83;21135;-66
2022/10/18 11:01:30;;;;;;;8.93;5.35;;;;;;;27.34;25.97;100956.52;1711906;83;21077;-67
2022/10/18 11:04:01;;;;;;;12.60;4.97;;;;;;;27.41;25.88;100952.23;1712009;83;21658;-68
2022/10/18 11:06:32;;;;;;;;;;;;;;;27.49;25.82;100949.28;1714483;83;21061;-68
2022/10/18 11:08:59;;;;;;;12.07;5.05;;;;;;;27.39;25.88;100947.97;1711756;83;20200;-67
2022/10/18 11:11:34;;;;;;;8.40;4.80;;;;;;;27.16;26.15;100940.14;1711695;83;21086;-66
2022/10/18 11:14:26;;;;;;;9.48;4.65;;;;;;;26.86;26.28;100934.92;1711365;83;21578;-67
2022/10/18 11:17:18;;;;;;;12.80;5.30;;;;;;;26.49;26.85;100931.04;1720084;83;21265;-66
2022/10/18 11:20:15;;;;;;;8.05;4.67;;;;;;;26.22;27.27;100924.11;1755394;81;21525;-67
2022/10/18 11:23:09;;;;;;;11.65;5.33;;;;;;;26.41;27.43;100928.20;1755073;81;21061;-67
2022/10/18 11:26:11;;;;;;;10.20;5.72;;;;;;;26.73;27.23;100920.34;1755257;81;21096;-66
2022/10/18 11:29:11;;;;;;;13.32;5.60;;;;;;;27.12;26.74;100910.84;1755136;81;21069;-66
2022/10/18 11:31:50;;;;;;;14.03;5.90;;;;;;;27.33;26.30;100908.85;1754718;81;21242;-67
2022/10/18 11:35:05;;;;;;;15.38;6.00;;;;;;;27.11;26.33;100901.04;1729887;81;21045;-66
2022/10/18 11:37:59;;;;;;;17.10;5.83;;;;;;;26.97;26.66;100900.48;1755210;81;21115;-67
2022/10/18 11:41:13;;;;;;;10.03;5.00;;;;;;;27.23;26.61;100894.48;1755169;81;21043;-67
2022/10/18 11:43:52;;;;;;;15.93;5.12;;;;;;;27.33;26.29;100884.52;1746737;81;21061;-67
2022/10/18 11:46:46;;;;;;;12.53;4.58;;;;;;;27.12;26.69;100885.16;1783011;80;21907;-68
2022/10/18 11:49:33;;;;;;;10.63;4.53;;;;;;;26.77;26.83;100886.64;1722134;83;21634;-68
2022/10/18 11:52:45;;;;;;;7.75;4.62;;;;;;;26.42;27.42;100883.98;1726058;83;21108;-66